Annaexpes — SY8251 — position and weather

sailwx.info

Track history (hours):
 
Tides and Currents Weather Stations Pressure Air Temp Water Temp Dewpoint Dewpoint Depression Visibility Wind Speed Wind Dir Waves Ship Positions

Annaexpes

Last reported at 2017-Dec-18 14:58 UTC. Time now 2017-Dec-18 16:45 UTC.
Position N 37°18' E 026°38'.

Length 20 m; draft 1.6 m.

Type: Passenger vessel. MMSI: 239136600.

Date/timePositionNaut miles runAvg speedWind from/ knotsBaromVisibWave heightAir tempDewpointWater temp
2017-Dec-18 14:58N 37°18' E 026°38'5 0.5
2017-Dec-18 05:41N 37°21' E 026°43'4 9.1
2017-Dec-18 05:14N 37°21' E 026°38'2 3.8
2017-Dec-18 04:42N 37°19' E 026°37'  
2017-Dec-15 02:08N 37°18' E 026°46'0 0.0
2017-Dec-14 11:18N 37°18' E 026°46'0 0.0
2017-Dec-14 10:57N 37°18' E 026°46'0 0.0
2017-Dec-14 10:30N 37°18' E 026°46'0 0.0
2017-Dec-14 09:59N 37°18' E 026°46'0 0.0
2017-Dec-14 09:30N 37°18' E 026°46'0 0.0
2017-Dec-14 06:59N 37°18' E 026°46'0 0.0
2017-Dec-14 05:18N 37°18' E 026°46'0 0.0
2017-Dec-14 05:01N 37°18' E 026°46'0 0.0
2017-Dec-14 04:30N 37°18' E 026°46'0 0.0
2017-Dec-14 04:00N 37°18' E 026°46'0 0.0
2017-Dec-14 02:01N 37°18' E 026°46'0 0.0
2017-Dec-14 00:16N 37°18' E 026°46'0 0.0
2017-Dec-14 00:00N 37°18' E 026°46'0 0.0
2017-Dec-13 23:30N 37°18' E 026°46'0 0.0
2017-Dec-13 23:00N 37°18' E 026°46'0 0.0
2017-Dec-13 21:02N 37°18' E 026°46'  
2017-Dec-11 14:54N 37°18' E 026°38'4 8.3
2017-Dec-11 14:29N 37°19' E 026°34'812.7
2017-Dec-11 13:52N 37°21' E 026°44'0 0.1
2017-Dec-11 05:42N 37°21' E 026°43'3 7.4
2017-Dec-11 05:20N 37°21' E 026°40'3 5.6
2017-Dec-11 04:44N 37°19' E 026°37'  
Track history (hours):
 
Tides and Currents Weather Stations Pressure Air Temp Water Temp Dewpoint Dewpoint Depression Visibility Wind Speed Wind Dir Waves Ship Positions

Annaexpes

Last reported at 2017-Dec-18 14:58 UTC. Time now 2017-Dec-18 16:45 UTC.
Position N 37°18' E 026°38'.

Length 20 m; draft 1.6 m.

Type: Passenger vessel. MMSI: 239136600.

Date/timePositionNaut miles runAvg speedWind from/ knotsBaromVisibWave heightAir tempDewpointWater temp
2017-Dec-18 14:58N 37°18' E 026°38'5 0.5
2017-Dec-18 05:41N 37°21' E 026°43'4 9.1
2017-Dec-18 05:14N 37°21' E 026°38'2 3.8
2017-Dec-18 04:42N 37°19' E 026°37'  
2017-Dec-15 02:08N 37°18' E 026°46'0 0.0
2017-Dec-14 11:18N 37°18' E 026°46'0 0.0
2017-Dec-14 10:57N 37°18' E 026°46'0 0.0
2017-Dec-14 10:30N 37°18' E 026°46'0 0.0
2017-Dec-14 09:59N 37°18' E 026°46'0 0.0
2017-Dec-14 09:30N 37°18' E 026°46'0 0.0
2017-Dec-14 06:59N 37°18' E 026°46'0 0.0
2017-Dec-14 05:18N 37°18' E 026°46'0 0.0
2017-Dec-14 05:01N 37°18' E 026°46'0 0.0
2017-Dec-14 04:30N 37°18' E 026°46'0 0.0
2017-Dec-14 04:00N 37°18' E 026°46'0 0.0
2017-Dec-14 02:01N 37°18' E 026°46'0 0.0
2017-Dec-14 00:16N 37°18' E 026°46'0 0.0
2017-Dec-14 00:00N 37°18' E 026°46'0 0.0
2017-Dec-13 23:30N 37°18' E 026°46'0 0.0
2017-Dec-13 23:00N 37°18' E 026°46'0 0.0
2017-Dec-13 21:02N 37°18' E 026°46'  
2017-Dec-11 14:54N 37°18' E 026°38'4 8.3
2017-Dec-11 14:29N 37°19' E 026°34'812.7
2017-Dec-11 13:52N 37°21' E 026°44'0 0.1
2017-Dec-11 05:42N 37°21' E 026°43'3 7.4
2017-Dec-11 05:20N 37°21' E 026°40'3 5.6
2017-Dec-11 04:44N 37°19' E 026°37'  

Dump ship's entire track history